Time;durP1;ratioP1;P1;durP2;ratioP2;P2;SDS_P1;SDS_P2;PMS_P1;PMS_P2;Temp;Humidity;BMP_temperature;BMP_pressure;BME280_temperature;BME280_humidity;BME280_pressure;Samples;Min_cycle;Max_cycle;Signal;HPM_P1;HPM_P2
2023/06/26 00:01:23;;;;;;;3.80;2.65;;;27.70;50.60;;;;;;5035327;28;20097;-83
2023/06/26 00:03:49;;;;;;;3.83;3.00;;;27.70;50.50;;;;;;5034620;28;20033;-83
2023/06/26 00:06:14;;;;;;;5.00;3.38;;;27.70;50.50;;;;;;5032683;28;20037;-80
2023/06/26 00:08:40;;;;;;;4.78;2.90;;;27.70;50.90;;;;;;5033957;28;20053;-80
2023/06/26 00:11:06;;;;;;;4.43;3.17;;;27.70;50.60;;;;;;5034338;28;20452;-80
2023/06/26 00:13:32;;;;;;;7.70;3.50;;;27.60;50.80;;;;;;5033907;28;20524;-80
2023/06/26 00:15:57;;;;;;;4.38;3.35;;;27.60;50.70;;;;;;5023613;28;20542;-81
2023/06/26 00:18:23;;;;;;;3.88;3.20;;;27.60;50.80;;;;;;5032606;28;20034;-81
2023/06/26 00:20:49;;;;;;;6.53;3.72;;;27.60;51.00;;;;;;5034325;28;20374;-82
2023/06/26 00:23:17;;;;;;;4.63;3.20;;;27.50;51.10;;;;;;5033415;28;20029;-82
2023/06/26 00:25:43;;;;;;;4.25;3.05;;;27.40;50.90;;;;;;5033871;28;20052;-82
2023/06/26 00:28:09;;;;;;;8.57;3.90;;;27.40;51.10;;;;;;5033486;28;20032;-81
2023/06/26 00:30:35;;;;;;;8.80;4.10;;;27.30;51.00;;;;;;5033740;28;20033;-82
2023/06/26 00:33:01;;;;;;;4.93;3.50;;;27.30;51.10;;;;;;5031953;28;20361;-82
2023/06/26 00:35:26;;;;;;;4.20;3.20;;;27.30;51.20;;;;;;5032706;28;20063;-82
2023/06/26 00:37:52;;;;;;;5.15;3.25;;;27.30;51.40;;;;;;5024630;28;20533;-82
2023/06/26 00:40:18;;;;;;;6.00;3.47;;;27.30;51.40;;;;;;5029875;28;20099;-82
2023/06/26 00:42:44;;;;;;;5.20;3.88;;;27.30;51.50;;;;;;5030311;28;20045;-82
2023/06/26 00:45:09;;;;;;;3.75;3.10;;;27.30;51.40;;;;;;5027682;28;20096;-82
2023/06/26 00:47:36;;;;;;;6.97;3.60;;;27.30;51.90;;;;;;5025081;28;20033;-82
2023/06/26 00:50:02;;;;;;;5.78;3.40;;;27.40;51.90;;;;;;5033830;28;20060;-82
2023/06/26 00:52:28;;;;;;;5.88;3.70;;;27.40;51.90;;;;;;5033041;28;20458;-82
2023/06/26 00:54:53;;;;;;;6.47;3.70;;;27.40;51.90;;;;;;5017973;28;20457;-81
2023/06/26 00:57:19;;;;;;;4.40;3.58;;;27.40;52.30;;;;;;5032210;28;20492;-81
2023/06/26 00:59:45;;;;;;;3.17;2.88;;;27.40;52.20;;;;;;5033334;28;20518;-82
2023/06/26 01:02:11;;;;;;;6.20;3.72;;;27.30;52.30;;;;;;5032659;28;20118;-82
2023/06/26 01:04:37;;;;;;;5.15;3.75;;;27.20;52.40;;;;;;5030375;28;20116;-81
2023/06/26 01:07:04;;;;;;;4.55;3.60;;;27.20;52.70;;;;;;5019434;28;20378;-82
2023/06/26 01:09:31;;;;;;;6.00;3.60;;;27.20;52.60;;;;;;5032203;28;20156;-82
2023/06/26 01:11:56;;;;;;;5.43;3.75;;;27.20;52.90;;;;;;5033303;28;20053;-82
2023/06/26 01:14:22;;;;;;;4.63;2.85;;;27.30;52.90;;;;;;5017069;28;20038;-81
2023/06/26 01:16:50;;;;;;;5.32;3.42;;;27.30;53.10;;;;;;5018440;28;20034;-81
2023/06/26 01:19:28;;;;;;;6.50;3.58;;;27.30;53.10;;;;;;5032375;28;20044;-81
2023/06/26 01:22:14;;;;;;;5.13;3.97;;;27.30;53.10;;;;;;5033408;28;20026;-82
2023/06/26 01:24:47;;;;;;;5.07;3.25;;;27.30;53.10;;;;;;5030039;28;20026;-82
2023/06/26 01:27:14;;;;;;;4.60;3.70;;;27.30;53.00;;;;;;5032155;28;20025;-82
2023/06/26 01:29:41;;;;;;;7.28;3.55;;;27.30;53.20;;;;;;5031127;28;20041;-80
2023/06/26 01:32:08;;;;;;;5.72;3.50;;;27.20;53.30;;;;;;5032765;28;20465;-80
2023/06/26 01:34:33;;;;;;;4.07;3.28;;;27.30;53.70;;;;;;5029702;28;20048;-80
2023/06/26 01:36:59;;;;;;;6.47;3.70;;;27.30;54.00;;;;;;5020111;28;20033;-80
2023/06/26 01:39:25;;;;;;;6.03;3.38;;;27.30;54.50;;;;;;5032426;28;20075;-80
2023/06/26 01:41:50;;;;;;;4.90;3.53;;;27.20;54.70;;;;;;5033187;28;20355;-80
2023/06/26 01:44:36;;;;;;;5.10;3.67;;;27.30;55.00;;;;;;5030668;28;20079;-80
2023/06/26 01:47:04;;;;;;;5.50;3.60;;;27.20;54.70;;;;;;5017337;28;20129;-80
2023/06/26 01:49:49;;;;;;;5.32;3.78;;;27.20;55.10;;;;;;5032794;28;20044;-80
2023/06/26 01:52:23;;;;;;;6.85;3.90;;;27.20;55.30;;;;;;5032862;28;20029;-80
2023/06/26 01:55:16;;;;;;;5.15;3.40;;;27.20;55.80;;;;;;5030694;28;20465;-82
2023/06/26 01:57:43;;;;;;;4.90;3.78;;;27.20;56.10;;;;;;5032609;28;20442;-82
2023/06/26 02:00:11;;;;;;;6.32;3.72;;;27.10;56.20;;;;;;5030767;28;20374;-82
2023/06/26 02:02:37;;;;;;;4.97;3.63;;;27.10;56.70;;;;;;5032448;28;20036;-83
2023/06/26 02:05:02;;;;;;;5.55;3.38;;;27.10;56.60;;;;;;5031298;28;20108;-83
2023/06/26 02:07:28;;;;;;;5.40;3.80;;;27.00;56.60;;;;;;5030912;28;20152;-82
2023/06/26 02:09:54;;;;;;;4.82;3.30;;;27.00;56.60;;;;;;5031737;28;20043;-82
2023/06/26 02:12:20;;;;;;;6.57;3.67;;;27.00;56.70;;;;;;5024586;28;20111;-81
2023/06/26 02:14:45;;;;;;;6.20;4.00;;;27.00;56.80;;;;;;5024527;28;20037;-81
2023/06/26 02:17:11;;;;;;;5.57;3.92;;;27.00;56.90;;;;;;5032434;28;20025;-82
2023/06/26 02:19:45;;;;;;;4.28;3.47;;;26.90;56.60;;;;;;5031855;28;20025;-83
2023/06/26 02:22:10;;;;;;;5.28;3.50;;;26.90;56.70;;;;;;5035286;28;20389;-82
2023/06/26 02:24:37;;;;;;;7.72;3.20;;;26.90;56.90;;;;;;5033893;28;20022;-83
2023/06/26 02:27:03;;;;;;;5.45;3.80;;;26.90;56.90;;;;;;5021554;28;20040;-84
2023/06/26 02:29:28;;;;;;;8.85;3.50;;;26.90;57.10;;;;;;5036046;28;20033;-83
2023/06/26 02:31:54;;;;;;;5.28;3.28;;;26.90;57.30;;;;;;5036102;28;20366;-82
2023/06/26 02:34:20;;;;;;;4.78;3.47;;;26.80;57.30;;;;;;5034392;28;20474;-82
2023/06/26 02:36:45;;;;;;;4.10;3.50;;;26.80;57.50;;;;;;5035686;28;20096;-82
2023/06/26 02:39:11;;;;;;;5.85;3.55;;;26.80;58.10;;;;;;5035640;28;20057;-81
2023/06/26 02:41:37;;;;;;;6.22;3.35;;;26.70;58.40;;;;;;5035263;28;20033;-82
2023/06/26 02:44:02;;;;;;;5.95;3.53;;;26.70;58.70;;;;;;5035393;28;20473;-82
2023/06/26 02:46:28;;;;;;;5.15;4.10;;;26.70;58.80;;;;;;5033737;28;20021;-82
2023/06/26 02:48:54;;;;;;;4.93;3.65;;;26.70;59.00;;;;;;5035302;28;20033;-82
2023/06/26 02:51:19;;;;;;;7.38;4.25;;;26.60;59.30;;;;;;5034567;28;20152;-81
2023/06/26 02:53:45;;;;;;;6.00;3.83;;;26.60;59.30;;;;;;5034611;28;20065;-82
2023/06/26 02:56:11;;;;;;;6.43;3.95;;;26.60;59.40;;;;;;5034484;28;20541;-82
2023/06/26 02:58:36;;;;;;;6.55;4.20;;;26.60;59.40;;;;;;5033311;28;20108;-83
2023/06/26 03:01:02;;;;;;;4.03;3.47;;;26.60;59.50;;;;;;5034601;28;20117;-83
2023/06/26 03:03:28;;;;;;;7.28;3.70;;;26.60;59.80;;;;;;5035599;28;20369;-83
2023/06/26 03:05:53;;;;;;;4.78;3.50;;;26.50;59.50;;;;;;5035175;28;20412;-83
2023/06/26 03:08:19;;;;;;;8.57;3.70;;;26.60;59.80;;;;;;5035350;28;20451;-83
2023/06/26 03:10:45;;;;;;;7.05;3.80;;;26.50;59.90;;;;;;5029428;28;20121;-83
2023/06/26 03:13:10;;;;;;;5.78;3.97;;;26.50;60.10;;;;;;5034136;28;20032;-82
2023/06/26 03:15:36;;;;;;;6.75;3.53;;;26.50;60.10;;;;;;5023846;28;20048;-82
2023/06/26 03:18:02;;;;;;;5.65;3.70;;;26.60;60.20;;;;;;5034824;28;20040;-83
2023/06/26 03:20:27;;;;;;;4.47;3.45;;;26.50;60.20;;;;;;5035273;28;20110;-83
2023/06/26 03:22:53;;;;;;;4.57;3.80;;;26.50;60.20;;;;;;5033702;28;20026;-83
2023/06/26 03:25:19;;;;;;;5.55;3.58;;;26.50;60.40;;;;;;5021117;28;20029;-84
2023/06/26 03:27:44;;;;;;;4.70;3.00;;;26.50;60.50;;;;;;5035292;28;20048;-82
2023/06/26 03:30:11;;;;;;;5.53;3.80;;;26.50;60.80;;;;;;5029629;28;20022;-82
2023/06/26 03:32:37;;;;;;;5.03;3.40;;;26.30;60.00;;;;;;5029151;28;20034;-83
2023/06/26 03:35:03;;;;;;;7.65;4.50;;;26.30;59.80;;;;;;5033975;28;20025;-83
2023/06/26 03:37:29;;;;;;;68.25;6.38;;;26.30;60.40;;;;;;5033251;28;20028;-83
2023/06/26 03:39:54;;;;;;;6.55;4.00;;;26.20;60.00;;;;;;5031879;28;20469;-83
2023/06/26 03:42:20;;;;;;;5.78;3.97;;;26.20;60.40;;;;;;5033343;28;20462;-81
2023/06/26 03:44:45;;;;;;;4.97;4.32;;;26.20;61.50;;;;;;5024643;28;20033;-81
2023/06/26 03:47:11;;;;;;;6.32;3.90;;;26.10;62.00;;;;;;5034054;28;20029;-81
2023/06/26 03:49:37;;;;;;;6.82;3.92;;;26.00;62.20;;;;;;5032515;28;20106;-81
2023/06/26 03:52:02;;;;;;;4.88;3.85;;;26.00;63.00;;;;;;5034768;28;20434;-81
2023/06/26 03:54:28;;;;;;;5.00;3.92;;;26.00;63.50;;;;;;5032998;28;20065;-81
2023/06/26 03:56:54;;;;;;;4.95;3.70;;;25.90;63.80;;;;;;5033494;28;20067;-81
2023/06/26 03:59:20;;;;;;;5.00;3.90;;;25.90;64.10;;;;;;5033154;28;20026;-81
2023/06/26 04:01:46;;;;;;;7.35;3.58;;;25.80;64.50;;;;;;5034430;28;20105;-81
2023/06/26 04:04:12;;;;;;;5.05;3.70;;;25.80;65.00;;;;;;5031398;28;20128;-81
2023/06/26 04:06:37;;;;;;;6.05;3.72;;;25.70;65.30;;;;;;5033289;28;20496;-81
2023/06/26 04:09:04;;;;;;;5.15;4.10;;;25.60;65.90;;;;;;5033853;28;20037;-81
2023/06/26 04:11:30;;;;;;;4.40;3.50;;;25.60;66.20;;;;;;5034033;28;20049;-81
2023/06/26 04:13:55;;;;;;;6.30;4.03;;;25.60;66.50;;;;;;5032639;28;20385;-81
2023/06/26 04:16:24;;;;;;;7.22;4.75;;;25.60;67.10;;;;;;5034059;28;20037;-81
2023/06/26 04:18:50;;;;;;;5.75;4.63;;;25.70;67.00;;;;;;5033068;28;20112;-81
2023/06/26 04:21:16;;;;;;;5.70;4.65;;;25.60;67.20;;;;;;5034048;28;20100;-82
2023/06/26 04:23:42;;;;;;;5.18;4.07;;;25.70;67.30;;;;;;5032069;28;20025;-81
2023/06/26 04:26:08;;;;;;;7.07;4.95;;;25.60;67.40;;;;;;5033900;28;20040;-81
2023/06/26 04:28:35;;;;;;;5.90;4.43;;;25.60;67.60;;;;;;5029042;28;20394;-82
2023/06/26 04:31:04;;;;;;;7.22;4.53;;;25.70;67.80;;;;;;5033158;28;20029;-83
2023/06/26 04:33:29;;;;;;;5.68;3.83;;;25.60;67.90;;;;;;5027092;28;20022;-81
2023/06/26 04:35:55;;;;;;;5.97;4.43;;;25.60;68.10;;;;;;5018485;28;20176;-80
2023/06/26 04:38:21;;;;;;;5.43;4.30;;;25.60;68.40;;;;;;5027990;28;20044;-78
2023/06/26 04:40:48;;;;;;;8.80;3.97;;;25.60;68.40;;;;;;5033706;28;20105;-78
2023/06/26 04:43:13;;;;;;;6.68;4.93;;;25.60;68.50;;;;;;5031092;28;20037;-77
2023/06/26 04:45:39;;;;;;;6.45;4.90;;;25.60;68.50;;;;;;5023820;28;20018;-77
2023/06/26 04:48:05;;;;;;;6.60;4.57;;;25.50;69.00;;;;;;5033070;28;20041;-78
2023/06/26 04:50:33;;;;;;;5.63;3.97;;;25.50;69.10;;;;;;5033321;28;20100;-78
2023/06/26 04:52:59;;;;;;;4.97;4.47;;;25.60;69.30;;;;;;5031146;28;20061;-78
2023/06/26 04:55:25;;;;;;;5.45;4.53;;;25.60;69.40;;;;;;5024634;28;20507;-78
2023/06/26 04:57:52;;;;;;;5.85;4.00;;;25.60;69.60;;;;;;5030710;28;20061;-77
2023/06/26 05:00:18;;;;;;;5.97;4.90;;;25.60;69.70;;;;;;5028986;28;20037;-77
2023/06/26 05:02:44;;;;;;;6.70;4.28;;;25.60;69.90;;;;;;5031378;28;20032;-77
2023/06/26 05:05:10;;;;;;;6.68;4.60;;;25.60;70.00;;;;;;5019929;28;20025;-77
2023/06/26 05:07:36;;;;;;;5.75;4.10;;;25.70;70.00;;;;;;5031805;28;20053;-77
2023/06/26 05:10:02;;;;;;;6.40;4.60;;;25.70;70.30;;;;;;5033199;28;20065;-77
2023/06/26 05:12:27;;;;;;;7.63;4.32;;;25.70;70.50;;;;;;5029220;28;20081;-77
2023/06/26 05:14:53;;;;;;;6.63;5.00;;;25.70;71.00;;;;;;5030998;28;20459;-77
2023/06/26 05:17:19;;;;;;;7.35;4.38;;;25.70;70.90;;;;;;5030967;28;20029;-77
2023/06/26 05:19:44;;;;;;;6.30;4.80;;;25.80;70.90;;;;;;5028829;28;20025;-77
2023/06/26 05:22:12;;;;;;;6.68;4.45;;;25.80;71.20;;;;;;5028695;28;20061;-77
2023/06/26 05:24:38;;;;;;;4.82;4.07;;;25.80;71.50;;;;;;5030891;28;20037;-77
2023/06/26 05:27:05;;;;;;;6.32;4.88;;;25.80;71.40;;;;;;5030800;28;20500;-76
2023/06/26 05:29:32;;;;;;;5.05;4.15;;;25.90;71.70;;;;;;5032637;28;20029;-78
2023/06/26 05:31:58;;;;;;;7.55;4.70;;;25.90;71.80;;;;;;5028382;28;20072;-77
2023/06/26 05:34:25;;;;;;;7.60;4.70;;;26.00;72.10;;;;;;5031172;28;20100;-80
2023/06/26 05:36:51;;;;;;;7.28;4.25;;;26.00;72.20;;;;;;5027048;28;20132;-80
2023/06/26 05:39:18;;;;;;;5.75;4.35;;;26.00;72.40;;;;;;5031034;28;20040;-80
2023/06/26 05:41:47;;;;;;;6.32;4.75;;;26.00;72.80;;;;;;5031652;28;20033;-80
2023/06/26 05:44:13;;;;;;;6.15;4.57;;;26.00;73.30;;;;;;5032984;28;20167;-80
2023/06/26 05:46:38;;;;;;;5.10;4.47;;;26.00;73.80;;;;;;5032714;28;20068;-80
2023/06/26 05:49:04;;;;;;;5.07;4.18;;;26.10;74.30;;;;;;5032281;28;20102;-80
2023/06/26 05:51:30;;;;;;;5.20;4.32;;;26.10;74.60;;;;;;5032679;28;20037;-80
2023/06/26 05:53:56;;;;;;;6.90;4.15;;;26.10;74.70;;;;;;5032389;28;20037;-80
2023/06/26 05:56:22;;;;;;;6.10;4.53;;;26.20;75.00;;;;;;5032673;28;20112;-80
2023/06/26 05:58:48;;;;;;;6.65;4.38;;;26.20;75.50;;;;;;5025040;28;20058;-80
2023/06/26 06:01:14;;;;;;;4.72;4.20;;;26.20;75.30;;;;;;5032700;28;20075;-80
2023/06/26 06:03:40;;;;;;;5.93;4.40;;;26.20;75.60;;;;;;5033315;28;20022;-80
2023/06/26 06:06:06;;;;;;;5.88;4.40;;;26.20;75.80;;;;;;5035820;28;20030;-81
2023/06/26 06:08:31;;;;;;;4.72;4.00;;;26.30;76.00;;;;;;5033128;28;20025;-80
2023/06/26 06:10:59;;;;;;;5.30;4.07;;;26.30;76.10;;;;;;5023989;28;20045;-81
2023/06/26 06:13:25;;;;;;;5.35;4.13;;;26.30;76.10;;;;;;5027572;28;20033;-81
2023/06/26 06:15:51;;;;;;;5.85;4.53;;;26.40;76.40;;;;;;5034900;28;20083;-81
2023/06/26 06:18:16;;;;;;;5.68;3.90;;;26.40;76.70;;;;;;5026115;28;20026;-81
2023/06/26 06:20:42;;;;;;;6.47;4.00;;;26.40;76.80;;;;;;5020621;28;20061;-81
2023/06/26 06:23:08;;;;;;;4.15;3.67;;;26.50;77.10;;;;;;5017110;28;20085;-81
2023/06/26 06:25:33;;;;;;;5.75;4.20;;;26.60;77.60;;;;;;5017102;28;20446;-81
2023/06/26 06:27:59;;;;;;;4.93;3.50;;;26.60;77.40;;;;;;5017937;28;20437;-81
2023/06/26 06:30:25;;;;;;;4.63;3.80;;;26.60;77.80;;;;;;5031825;28;20390;-81
2023/06/26 06:32:52;;;;;;;6.25;3.17;;;26.70;78.50;;;;;;5035103;28;20029;-81
2023/06/26 06:35:18;;;;;;;5.18;4.25;;;26.70;78.10;;;;;;5035991;28;20068;-81
2023/06/26 06:37:44;;;;;;;4.93;3.97;;;26.70;78.10;;;;;;5036852;28;20477;-81
2023/06/26 06:40:10;;;;;;;7.80;3.80;;;26.80;77.80;;;;;;5035369;28;20029;-81
2023/06/26 06:42:36;;;;;;;9.63;4.00;;;26.80;77.70;;;;;;5034798;28;20108;-82
2023/06/26 06:45:06;;;;;;;4.82;3.47;;;26.90;77.90;;;;;;5021305;28;20458;-81
2023/06/26 06:47:32;;;;;;;4.32;3.67;;;27.00;78.30;;;;;;5029979;28;20168;-81
2023/06/26 06:49:58;;;;;;;6.93;3.47;;;27.00;78.20;;;;;;5017570;28;20061;-81
2023/06/26 06:52:24;;;;;;;3.90;3.50;;;27.10;78.10;;;;;;5034148;28;20351;-81
2023/06/26 06:55:05;;;;;;;11.00;3.50;;;27.10;78.00;;;;;;5036327;28;20056;-81
2023/06/26 06:57:35;;;;;;;5.07;4.00;;;27.10;78.20;;;;;;5035154;28;20021;-82
2023/06/26 07:00:04;;;;;;;4.47;3.85;;;27.20;77.80;;;;;;5030613;28;20033;-80
2023/06/26 07:02:30;;;;;;;5.13;3.60;;;27.30;77.70;;;;;;5033944;28;20041;-81
2023/06/26 07:04:55;;;;;;;4.10;3.30;;;27.30;77.40;;;;;;5035326;28;20065;-80
2023/06/26 07:07:21;;;;;;;6.30;3.53;;;27.40;77.30;;;;;;5034348;28;20033;-80
2023/06/26 07:09:47;;;;;;;3.90;3.22;;;27.40;76.90;;;;;;5033730;28;20041;-79
2023/06/26 07:12:12;;;;;;;3.72;3.28;;;27.50;76.50;;;;;;5035669;28;20065;-80
2023/06/26 07:14:39;;;;;;;4.05;3.50;;;27.50;76.10;;;;;;5024941;28;20022;-80
2023/06/26 07:17:05;;;;;;;3.50;2.90;;;27.60;76.10;;;;;;5031931;28;20025;-80
2023/06/26 07:19:30;;;;;;;4.70;3.22;;;27.60;75.80;;;;;;5030597;28;20386;-81
2023/06/26 07:21:56;;;;;;;4.97;3.40;;;27.70;75.30;;;;;;5031232;28;20025;-80
2023/06/26 07:24:21;;;;;;;13.70;3.92;;;27.70;74.40;;;;;;5030951;28;20075;-81
2023/06/26 07:26:47;;;;;;;3.28;2.90;;;27.70;73.90;;;;;;5025927;28;20052;-81
2023/06/26 07:29:13;;;;;;;3.67;2.70;;;27.80;73.10;;;;;;5035146;28;20445;-80
2023/06/26 07:31:38;;;;;;;4.18;3.05;;;27.90;72.50;;;;;;5034225;28;20026;-80
2023/06/26 07:34:04;;;;;;;4.75;3.05;;;27.90;72.10;;;;;;5034758;28;20040;-81
2023/06/26 07:36:30;;;;;;;3.88;3.20;;;27.90;72.30;;;;;;5025491;28;20037;-82
2023/06/26 07:38:55;;;;;;;3.60;2.75;;;28.00;72.60;;;;;;5030896;28;20037;-82
2023/06/26 07:41:21;;;;;;;3.60;2.92;;;28.00;72.30;;;;;;5027141;28;20470;-80
2023/06/26 07:43:47;;;;;;;3.15;2.83;;;28.10;72.10;;;;;;5026480;28;20030;-81
2023/06/26 07:46:12;;;;;;;4.00;3.03;;;28.10;72.00;;;;;;5034807;28;20106;-82
2023/06/26 07:48:38;;;;;;;4.70;3.55;;;28.10;72.00;;;;;;5032588;28;20029;-81
2023/06/26 07:51:04;;;;;;;6.25;3.80;;;28.20;71.40;;;;;;5032675;28;20064;-81
2023/06/26 07:53:29;;;;;;;3.65;3.03;;;28.20;71.00;;;;;;5028908;28;20112;-81
2023/06/26 07:55:55;;;;;;;4.13;2.67;;;28.20;71.00;;;;;;5032744;28;20053;-80
2023/06/26 07:58:21;;;;;;;3.95;3.25;;;28.30;71.50;;;;;;5034404;28;20454;-80
2023/06/26 08:00:46;;;;;;;3.75;3.30;;;28.40;70.80;;;;;;5033778;28;20438;-80
2023/06/26 08:03:12;;;;;;;4.32;2.90;;;28.40;71.30;;;;;;5033598;28;20022;-81
2023/06/26 08:05:38;;;;;;;5.00;3.10;;;28.50;71.80;;;;;;5034224;28;20026;-80
2023/06/26 08:08:04;;;;;;;3.60;2.85;;;28.50;70.90;;;;;;5033837;28;20037;-80
2023/06/26 08:10:30;;;;;;;4.72;2.85;;;28.50;70.60;;;;;;5034549;28;20384;-80
2023/06/26 08:12:56;;;;;;;3.42;3.13;;;28.60;71.00;;;;;;5032633;28;20033;-80
2023/06/26 08:15:21;;;;;;;4.47;3.58;;;28.60;71.30;;;;;;5020767;28;20517;-82
2023/06/26 08:17:47;;;;;;;4.20;3.08;;;28.60;71.60;;;;;;5033018;28;20021;-82
2023/06/26 08:20:13;;;;;;;4.90;3.92;;;28.80;72.80;;;;;;5024217;28;20418;-82
2023/06/26 08:22:39;;;;;;;5.28;3.40;;;28.80;72.20;;;;;;5025782;28;20040;-81
2023/06/26 08:25:05;;;;;;;3.78;3.38;;;28.80;72.40;;;;;;5029945;28;20104;-81
2023/06/26 08:27:32;;;;;;;5.32;3.63;;;28.90;72.10;;;;;;5033754;28;20036;-81
2023/06/26 08:29:58;;;;;;;4.22;3.47;;;29.00;72.30;;;;;;5034077;28;20112;-81
2023/06/26 08:32:25;;;;;;;5.20;3.00;;;29.00;71.90;;;;;;5021733;28;20030;-81
2023/06/26 08:34:50;;;;;;;2.95;2.65;;;29.00;71.50;;;;;;5014108;28;20057;-81
2023/06/26 08:37:16;;;;;;;5.03;3.03;;;29.00;71.00;;;;;;5017709;28;20485;-81
2023/06/26 08:39:42;;;;;;;2.95;2.65;;;29.10;70.90;;;;;;5014155;28;20057;-81
2023/06/26 08:42:07;;;;;;;6.55;2.55;;;29.10;70.50;;;;;;5013927;28;20525;-81
2023/06/26 08:44:33;;;;;;;5.57;3.58;;;29.20;70.70;;;;;;5028347;28;20033;-81
2023/06/26 08:47:03;;;;;;;4.80;3.17;;;29.20;70.30;;;;;;5026693;28;20026;-82
2023/06/26 08:49:49;;;;;;;;;;;29.30;69.80;;;;;;5032022;28;20036;-82
2023/06/26 08:52:23;;;;;;;4.82;2.78;;;29.30;69.70;;;;;;5023986;28;19916;-82
2023/06/26 08:54:55;;;;;;;3.35;2.83;;;29.30;69.00;;;;;;5022216;28;20350;-81
2023/06/26 08:57:23;;;;;;;7.15;3.50;;;29.40;69.00;;;;;;5026667;28;20041;-82
2023/06/26 08:59:49;;;;;;;6.22;3.35;;;29.40;68.30;;;;;;5026749;28;20017;-80
2023/06/26 09:02:15;;;;;;;4.35;3.28;;;29.50;68.30;;;;;;5013925;28;20044;-81
2023/06/26 09:04:41;;;;;;;6.50;3.35;;;29.50;68.70;;;;;;5020567;28;20432;-80
2023/06/26 09:07:07;;;;;;;4.03;3.33;;;29.60;68.20;;;;;;5030294;28;20389;-81
2023/06/26 09:09:33;;;;;;;8.85;3.55;;;29.70;68.70;;;;;;5019824;28;20507;-81
2023/06/26 09:12:01;;;;;;;3.97;3.20;;;29.70;68.70;;;;;;5027169;28;20049;-80
2023/06/26 09:14:27;;;;;;;3.72;3.38;;;29.80;69.50;;;;;;5021004;28;20038;-81
2023/06/26 09:16:53;;;;;;;4.15;3.00;;;29.90;68.90;;;;;;5027765;28;20084;-81
2023/06/26 09:19:18;;;;;;;3.50;3.20;;;30.00;69.20;;;;;;5030623;28;20026;-81
2023/06/26 09:21:44;;;;;;;6.35;2.90;;;30.00;68.90;;;;;;5020280;28;20040;-81
2023/06/26 09:24:10;;;;;;;3.83;3.35;;;30.10;68.50;;;;;;5017379;28;20030;-81
2023/06/26 09:26:38;;;;;;;4.70;3.45;;;30.20;68.10;;;;;;5017520;28;20056;-80
2023/06/26 09:29:05;;;;;;;6.00;3.40;;;30.30;67.80;;;;;;5024453;28;20108;-80
2023/06/26 09:31:30;;;;;;;7.43;3.63;;;30.40;66.90;;;;;;5029900;28;20041;-80
2023/06/26 09:33:59;;;;;;;4.75;3.47;;;30.40;65.90;;;;;;5032223;28;20053;-81
2023/06/26 09:36:28;;;;;;;6.20;3.53;;;30.40;65.00;;;;;;5025817;28;20037;-81
2023/06/26 09:38:54;;;;;;;5.32;3.65;;;30.50;64.90;;;;;;5026106;28;20033;-80
2023/06/26 09:41:20;;;;;;;4.60;3.08;;;30.50;64.90;;;;;;5023299;28;20029;-80
2023/06/26 09:43:51;;;;;;;5.88;3.53;;;30.60;65.30;;;;;;5028176;28;20075;-79
2023/06/26 09:46:23;;;;;;;4.53;2.92;;;30.60;64.80;;;;;;5029515;28;20044;-79
2023/06/26 09:48:50;;;;;;;3.70;3.30;;;30.70;64.50;;;;;;5024747;28;20026;-80
2023/06/26 09:51:17;;;;;;;5.75;3.67;;;30.70;64.10;;;;;;5031553;28;20091;-80
2023/06/26 09:53:43;;;;;;;3.85;2.97;;;30.80;63.80;;;;;;5021464;28;20025;-80
2023/06/26 09:56:19;;;;;;;7.25;3.85;;;30.90;63.90;;;;;;5022361;28;20472;-79
2023/06/26 09:58:45;;;;;;;4.30;3.55;;;31.00;63.90;;;;;;5032211;28;20500;-81
2023/06/26 10:01:11;;;;;;;6.72;3.45;;;31.10;63.60;;;;;;5027907;28;20034;-80
2023/06/26 10:03:36;;;;;;;4.32;2.83;;;31.10;62.70;;;;;;5031338;28;20035;-79
2023/06/26 10:06:04;;;;;;;3.58;2.88;;;31.20;62.30;;;;;;5019393;28;20471;-81
2023/06/26 10:08:31;;;;;;;3.83;3.42;;;31.20;61.90;;;;;;5031182;28;20061;-81
2023/06/26 10:10:57;;;;;;;7.53;3.83;;;31.20;60.90;;;;;;5021287;28;20140;-80
2023/06/26 10:13:34;;;;;;;3.80;3.20;;;31.20;60.90;;;;;;5028075;28;20037;-80
2023/06/26 10:16:01;;;;;;;6.32;3.60;;;31.30;61.40;;;;;;5028343;28;20045;-80
2023/06/26 10:18:30;;;;;;;4.30;2.90;;;31.30;61.20;;;;;;5031602;28;20030;-84
2023/06/26 10:20:57;;;;;;;4.65;3.75;;;31.40;61.50;;;;;;5032094;28;20466;-81
2023/06/26 10:23:25;;;;;;;3.67;3.30;;;31.50;60.90;;;;;;5032585;28;20017;-80
2023/06/26 10:25:52;;;;;;;3.83;3.22;;;31.50;60.20;;;;;;5032294;28;20033;-81
2023/06/26 10:28:19;;;;;;;4.13;3.30;;;31.60;60.50;;;;;;5016431;28;20024;-81
2023/06/26 10:30:47;;;;;;;3.70;3.33;;;31.80;60.60;;;;;;5019479;28;20041;-81
2023/06/26 10:33:14;;;;;;;3.70;3.03;;;31.80;60.60;;;;;;5030490;28;20033;-81
2023/06/26 10:35:46;;;;;;;5.97;3.30;;;31.90;61.00;;;;;;5024423;28;20076;-81
2023/06/26 10:38:12;;;;;;;4.93;3.42;;;32.00;60.40;;;;;;5030770;28;20100;-81
2023/06/26 10:40:50;;;;;;;7.63;3.42;;;32.10;60.40;;;;;;5027322;28;20339;-81
2023/06/26 10:43:18;;;;;;;6.90;3.70;;;32.20;60.30;;;;;;5035392;28;20018;-81
2023/06/26 10:45:55;;;;;;;6.20;3.63;;;32.30;60.20;;;;;;5036101;28;20029;-81
2023/06/26 10:48:22;;;;;;;4.95;3.25;;;32.40;60.60;;;;;;5034731;28;20025;-81
2023/06/26 10:50:50;;;;;;;3.80;3.17;;;32.60;60.00;;;;;;5031649;28;20041;-81
2023/06/26 10:53:26;;;;;;;5.18;4.00;;;32.70;59.20;;;;;;5030658;28;20386;-81
2023/06/26 10:56:05;;;;;;;3.83;3.30;;;32.80;58.80;;;;;;5028833;28;20476;-81
2023/06/26 10:58:33;;;;;;;3.40;3.10;;;32.80;58.70;;;;;;5029065;28;20076;-81
2023/06/26 11:01:11;;;;;;;6.90;3.88;;;33.00;58.60;;;;;;5030561;28;20037;-82
2023/06/26 11:03:45;;;;;;;4.13;3.55;;;33.10;58.40;;;;;;5032678;28;20025;-80
2023/06/26 11:06:29;;;;;;;4.18;3.42;;;33.20;58.50;;;;;;5028545;28;20755;-81
2023/06/26 11:09:00;;;;;;;4.55;3.58;;;33.40;57.80;;;;;;5030303;28;20033;-80
2023/06/26 11:11:51;;;;;;;9.93;4.28;;;33.50;58.40;;;;;;5029578;28;21108;-80
2023/06/26 11:14:20;;;;;;;4.85;3.67;;;33.70;56.70;;;;;;5032994;28;20041;-82
2023/06/26 11:16:46;;;;;;;;;;;33.80;57.10;;;;;;5032294;28;20037;-82
2023/06/26 11:19:14;;;;;;;4.93;3.60;;;33.90;56.40;;;;;;5034247;28;19963;-81
2023/06/26 11:21:40;;;;;;;4.40;3.67;;;34.00;57.30;;;;;;5035714;28;20057;-82
2023/06/26 11:24:10;;;;;;;4.90;3.65;;;34.20;57.60;;;;;;5034514;28;20037;-82
2023/06/26 11:26:44;;;;;;;5.07;3.58;;;34.40;57.60;;;;;;5035815;28;20056;-82
2023/06/26 11:29:10;;;;;;;5.53;4.00;;;34.70;56.90;;;;;;5035708;28;20037;-82
2023/06/26 11:31:41;;;;;;;4.38;3.88;;;34.90;57.10;;;;;;5035775;28;20029;-82
2023/06/26 11:34:12;;;;;;;6.13;3.78;;;35.20;55.70;;;;;;5035311;28;20026;-79
2023/06/26 11:36:41;;;;;;;7.85;3.60;;;35.50;55.10;;;;;;5022401;28;20037;-77
2023/06/26 11:39:07;;;;;;;5.35;4.00;;;35.90;54.50;;;;;;5031486;28;20025;-80
2023/06/26 11:41:34;;;;;;;4.35;3.50;;;36.30;53.30;;;;;;5035426;28;20044;-78
2023/06/26 11:44:02;;;;;;;5.13;4.10;;;36.60;52.40;;;;;;5034488;28;20028;-78
2023/06/26 11:46:28;;;;;;;7.95;4.68;;;36.90;51.70;;;;;;5035277;28;20394;-78
2023/06/26 11:48:54;;;;;;;5.82;4.30;;;37.20;52.30;;;;;;5034927;28;20037;-78
2023/06/26 11:51:19;;;;;;;5.97;3.97;;;37.40;51.70;;;;;;5033027;28;20026;-78
2023/06/26 11:53:47;;;;;;;6.80;4.47;;;37.70;51.10;;;;;;5034454;28;20366;-78
2023/06/26 11:56:15;;;;;;;5.53;3.50;;;37.90;50.60;;;;;;5034367;28;20021;-80
2023/06/26 11:58:57;;;;;;;9.15;4.80;;;38.10;50.50;;;;;;5034300;28;20030;-79
2023/06/26 12:01:23;;;;;;;6.43;4.35;;;38.20;50.40;;;;;;5032819;28;20079;-79
2023/06/26 12:03:50;;;;;;;5.95;4.55;;;38.30;49.40;;;;;;5019765;28;20022;-79
2023/06/26 12:06:16;;;;;;;4.35;3.88;;;38.40;49.30;;;;;;5032472;28;20079;-79
2023/06/26 12:08:42;;;;;;;8.85;4.15;;;38.50;49.50;;;;;;5035039;28;20033;-79
2023/06/26 12:11:09;;;;;;;15.40;4.47;;;38.60;49.10;;;;;;5034185;28;20045;-79
2023/06/26 12:13:34;;;;;;;5.55;3.75;;;38.70;49.30;;;;;;5022237;28;20359;-79
2023/06/26 12:16:00;;;;;;;7.20;3.67;;;38.80;49.40;;;;;;5024820;28;20084;-79
2023/06/26 12:18:33;;;;;;;4.10;3.70;;;38.90;48.60;;;;;;5033250;28;20021;-79
2023/06/26 12:20:59;;;;;;;7.65;4.63;;;39.00;48.50;;;;;;5047890;28;20531;-80
2023/06/26 12:23:33;;;;;;;10.82;4.45;;;39.10;48.40;;;;;;5034134;28;20025;-80
2023/06/26 12:25:59;;;;;;;12.00;4.30;;;39.20;48.20;;;;;;5019953;28;20373;-80
2023/06/26 12:28:25;;;;;;;13.07;4.93;;;39.30;48.60;;;;;;5020857;28;20040;-81
2023/06/26 12:31:15;;;;;;;7.97;4.68;;;39.40;48.00;;;;;;5025473;28;20111;-78
2023/06/26 12:33:44;;;;;;;14.65;4.57;;;39.60;47.90;;;;;;5024814;28;20032;-78
2023/06/26 12:36:13;;;;;;;12.40;4.47;;;39.60;47.30;;;;;;5026901;28;20087;-79
2023/06/26 12:38:44;;;;;;;12.60;4.43;;;39.70;47.50;;;;;;5028555;28;20033;-79
2023/06/26 12:41:14;;;;;;;5.40;3.90;;;39.70;47.20;;;;;;5014358;28;20437;-79
2023/06/26 12:43:40;;;;;;;4.60;3.85;;;39.70;47.00;;;;;;5020295;28;20052;-81
2023/06/26 12:46:06;;;;;;;6.20;4.05;;;39.80;47.30;;;;;;5033850;28;20060;-81
2023/06/26 12:48:46;;;;;;;7.00;4.32;;;39.80;46.50;;;;;;5032650;28;20038;-80